logo
Search for airport 
image banner adimage banner adimage banner ad
image banner ad

LSYB - Bluemlisalp

Located in , Switzerland

ICAO - , IATA -

Data provided by Airmate  

General information

Coordinates: N46°30'31" E7°46'13"
Elevation is 9186 feet MSL.
 
View others Airports in Berne

Operational data

Special qualification required
Current time UTC:
Current local time:
Weather at : LSMM - Meiringen ( 37 km )
METAR: LSMM 171220Z 07010G20KT 020V110 9999 BKN063 22/14 Q1022 RMK BLU
View NOTAMs / SUP AIP / TFR affecting this airport [VIEW]
Communications frequencies: [VIEW]

Runways:

Airport contact information

Address: Switzerland

Satellite view of LSYB